createdAt,value
2018-09-03T00:01:02.496Z,101843.23
2018-09-03T00:03:30.687Z,101842.86
2018-09-03T00:05:58.796Z,101837.00
2018-09-03T00:08:26.977Z,101833.30
2018-09-03T00:10:55.100Z,101836.97
2018-09-03T00:13:23.232Z,101825.27
2018-09-03T00:15:51.323Z,101820.72
2018-09-03T00:18:19.427Z,101817.16
2018-09-03T00:20:47.506Z,101821.40
2018-09-03T00:23:15.611Z,101824.48
2018-09-03T00:25:43.833Z,101818.83
2018-09-03T00:28:11.960Z,101813.09
2018-09-03T00:30:40.077Z,101812.31
2018-09-03T00:33:13.487Z,101804.50
2018-09-03T00:35:46.846Z,101797.84
2018-09-03T00:38:20.343Z,101805.58
2018-09-03T00:40:53.769Z,101799.82
2018-09-03T00:43:27.267Z,101798.80
2018-09-03T00:46:00.787Z,101804.73
2018-09-03T00:48:28.901Z,101797.77
2018-09-03T00:50:57.047Z,101801.44
2018-09-03T00:53:25.126Z,101790.54
2018-09-03T00:55:53.307Z,101794.53
2018-09-03T00:58:21.465Z,101796.25
2018-09-03T01:00:49.594Z,101793.66
2018-09-03T01:03:17.709Z,101791.73
2018-09-03T01:05:45.870Z,101790.75
2018-09-03T01:08:14.021Z,101791.03
2018-09-03T01:10:42.128Z,101792.27
2018-09-03T01:13:10.235Z,101783.59
2018-09-03T01:15:38.373Z,101791.99
2018-09-03T01:18:06.496Z,101789.14
2018-09-03T01:20:34.611Z,101784.50
2018-09-03T01:23:02.739Z,101789.89
2018-09-03T01:25:30.862Z,101789.59
2018-09-03T01:27:58.993Z,101789.89
2018-09-03T01:30:27.123Z,101785.58
2018-09-03T01:32:55.256Z,101783.68
2018-09-03T01:35:23.376Z,101789.56
2018-09-03T01:37:51.532Z,101789.32
2018-09-03T01:40:19.675Z,101780.46
2018-09-03T01:42:47.870Z,101775.94
2018-09-03T01:45:15.947Z,101774.34
2018-09-03T01:47:44.071Z,101778.18
2018-09-03T01:50:12.167Z,101773.87
2018-09-03T01:52:40.313Z,101764.88
2018-09-03T01:55:08.426Z,101768.48
2018-09-03T01:57:36.548Z,101763.25
2018-09-03T02:00:04.875Z,101762.03
2018-09-03T02:02:33.016Z,101760.30
2018-09-03T02:05:01.121Z,101759.29
2018-09-03T02:07:29.199Z,101759.97
2018-09-03T02:09:57.307Z,101755.83
2018-09-03T02:12:25.400Z,101756.84
2018-09-03T02:14:53.539Z,101753.36
2018-09-03T02:17:21.648Z,101759.39
2018-09-03T02:19:49.744Z,101762.06
2018-09-03T02:22:17.861Z,101747.99
2018-09-03T02:24:45.978Z,101744.40
2018-09-03T02:27:14.094Z,101743.55
2018-09-03T02:29:42.203Z,101746.76
2018-09-03T02:32:10.456Z,101746.09
2018-09-03T02:34:38.573Z,101746.21
2018-09-03T02:37:06.675Z,101737.86
2018-09-03T02:39:34.748Z,101745.91
2018-09-03T02:42:02.842Z,101744.67
2018-09-03T02:44:31.040Z,101740.42
2018-09-03T02:46:59.183Z,101749.78
2018-09-03T02:49:27.323Z,101754.97
2018-09-03T02:51:55.481Z,101748.37
2018-09-03T02:54:23.590Z,101746.01
2018-09-03T02:56:51.744Z,101740.45
2018-09-03T02:59:19.924Z,101739.97
2018-09-03T03:01:48.012Z,101740.20
2018-09-03T03:04:16.135Z,101737.95
2018-09-03T03:06:44.238Z,101739.92
2018-09-03T03:09:12.326Z,101731.15
2018-09-03T03:11:40.595Z,101726.76
2018-09-03T03:14:08.912Z,101732.22
2018-09-03T03:16:37.008Z,101727.21
2018-09-03T03:19:05.331Z,101727.98
2018-09-03T03:21:33.477Z,101722.75
2018-09-03T03:24:01.638Z,101722.09
2018-09-03T03:26:29.755Z,101720.78
2018-09-03T03:28:57.916Z,101722.21
2018-09-03T03:31:26.069Z,101719.30
2018-09-03T03:33:54.622Z,101726.66
2018-09-03T03:36:22.795Z,101724.66
2018-09-03T03:38:51.040Z,101724.73
2018-09-03T03:41:19.205Z,101721.51
2018-09-03T03:43:47.359Z,101720.19
2018-09-03T03:46:15.481Z,101714.42
2018-09-03T03:48:43.705Z,101703.56
2018-09-03T03:51:11.822Z,101707.06
2018-09-03T03:53:39.946Z,101706.75
2018-09-03T03:56:08.269Z,101699.39
2018-09-03T03:58:36.400Z,101701.67
2018-09-03T04:01:04.544Z,101701.86
2018-09-03T04:03:32.637Z,101695.33
2018-09-03T04:06:00.732Z,101688.36
2018-09-03T04:08:28.828Z,101690.22
2018-09-03T04:10:56.935Z,101695.63
2018-09-03T04:13:25.101Z,101692.54
2018-09-03T04:15:53.234Z,101694.23
2018-09-03T04:18:21.339Z,101699.62
2018-09-03T04:20:49.487Z,101696.22
2018-09-03T04:23:17.667Z,101689.50
2018-09-03T04:25:45.705Z,101688.58
2018-09-03T04:28:13.858Z,101689.48
2018-09-03T04:30:41.973Z,101685.47
2018-09-03T04:33:10.180Z,101685.57
2018-09-03T04:35:38.298Z,101687.73
2018-09-03T04:38:06.451Z,101684.45
2018-09-03T04:40:34.520Z,101679.48
2018-09-03T04:43:02.658Z,101688.22
2018-09-03T04:45:30.796Z,101689.17
2018-09-03T04:47:58.916Z,101686.36
2018-09-03T04:50:26.988Z,101682.24
2018-09-03T04:52:55.080Z,101683.32
2018-09-03T04:55:23.422Z,101679.88
2018-09-03T04:57:51.448Z,101683.09
2018-09-03T05:00:19.542Z,101687.30
2018-09-03T05:02:47.634Z,101686.81
2018-09-03T05:05:15.758Z,101682.38
2018-09-03T05:07:43.888Z,101669.01
2018-09-03T05:10:11.963Z,101676.87
2018-09-03T05:12:40.140Z,101668.34
2018-09-03T05:15:08.306Z,101670.98
2018-09-03T05:17:36.402Z,101664.27
2018-09-03T05:20:04.564Z,101666.33
2018-09-03T05:22:32.697Z,101661.36
2018-09-03T05:25:00.789Z,101656.19
2018-09-03T05:27:28.889Z,101666.77
2018-09-03T05:29:57.004Z,101662.41
2018-09-03T05:32:25.108Z,101663.58
2018-09-03T05:34:53.211Z,101663.05
2018-09-03T05:37:21.363Z,101661.52
2018-09-03T05:39:49.486Z,101671.58
2018-09-03T05:42:17.604Z,101678.56
2018-09-03T05:44:45.687Z,101672.92
2018-09-03T05:47:13.835Z,101675.65
2018-09-03T05:49:41.973Z,101671.17
2018-09-03T05:52:10.100Z,101671.48
2018-09-03T05:54:38.215Z,101675.40
2018-09-03T05:57:06.295Z,101679.38
2018-09-03T05:59:34.467Z,101679.11
2018-09-03T06:02:02.545Z,101682.50
2018-09-03T06:04:30.654Z,101688.38
2018-09-03T06:06:58.750Z,101688.11
2018-09-03T06:09:26.842Z,101694.84
2018-09-03T06:11:54.910Z,101686.09
2018-09-03T06:14:24.071Z,101688.85
2018-09-03T06:16:52.201Z,101689.86
2018-09-03T06:19:20.326Z,101686.84
2018-09-03T06:21:48.462Z,101676.89
2018-09-03T06:24:16.603Z,101676.72
2018-09-03T06:26:44.692Z,101666.23
2018-09-03T06:29:12.816Z,101660.99
2018-09-03T06:31:40.931Z,101673.87
2018-09-03T06:34:09.060Z,101681.39
2018-09-03T06:36:37.153Z,101683.19
2018-09-03T06:39:07.002Z,101684.63
2018-09-03T06:41:35.052Z,101684.89
2018-09-03T06:44:03.144Z,101687.37
2018-09-03T06:46:31.237Z,101682.13
2018-09-03T06:48:59.395Z,101691.56
2018-09-03T06:51:27.507Z,101689.97
2018-09-03T06:53:55.613Z,101680.64
2018-09-03T06:56:23.735Z,101682.56
2018-09-03T06:58:51.858Z,101681.91
2018-09-03T07:01:20.247Z,101675.79
2018-09-03T07:03:48.411Z,101682.53
2018-09-03T07:06:16.542Z,101677.16
2018-09-03T07:08:44.624Z,101674.72
2018-09-03T07:11:12.913Z,101678.88
2018-09-03T07:13:41.077Z,101678.94
2018-09-03T07:16:09.197Z,101679.41
2018-09-03T07:18:37.373Z,101679.11
2018-09-03T07:21:05.502Z,101679.48
2018-09-03T07:23:33.624Z,101685.56
2018-09-03T07:26:01.706Z,101690.48
2018-09-03T07:28:29.835Z,101694.95
2018-09-03T07:30:58.440Z,101696.00
2018-09-03T07:33:26.560Z,101691.29
2018-09-03T07:35:54.669Z,101686.25
2018-09-03T07:38:22.804Z,101691.55
2018-09-03T07:40:50.957Z,101683.50
2018-09-03T07:43:19.069Z,101677.14
2018-09-03T07:45:47.194Z,101667.99
2018-09-03T07:48:15.372Z,101677.41
2018-09-03T07:50:43.506Z,101681.11
2018-09-03T07:53:11.604Z,101678.11
2018-09-03T07:55:39.734Z,101673.92
2018-09-03T07:58:08.323Z,101672.27
2018-09-03T08:00:36.387Z,101673.59
2018-09-03T08:03:04.490Z,101676.51
2018-09-03T08:05:32.654Z,101671.12
2018-09-03T08:08:00.784Z,101673.64
2018-09-03T08:10:28.941Z,101669.89
2018-09-03T08:12:57.068Z,101672.81
2018-09-03T08:15:25.202Z,101660.09
2018-09-03T08:17:53.307Z,101665.56
2018-09-03T08:20:21.452Z,101658.62
2018-09-03T08:22:49.615Z,101656.49
2018-09-03T08:25:17.727Z,101665.91
2018-09-03T08:27:45.860Z,101664.06
2018-09-03T08:30:14.014Z,101653.77
2018-09-03T08:32:42.212Z,101657.80
2018-09-03T08:35:10.514Z,101650.66
2018-09-03T08:37:38.773Z,101644.73
2018-09-03T08:40:06.924Z,101638.49
2018-09-03T08:42:35.065Z,101636.74
2018-09-03T08:45:03.184Z,101634.78
2018-09-03T08:47:31.510Z,101637.20
2018-09-03T08:49:59.629Z,101638.05
2018-09-03T08:52:27.795Z,101630.17
2018-09-03T08:54:55.891Z,101629.81
2018-09-03T08:57:24.059Z,101632.34
2018-09-03T08:59:52.221Z,101632.78
2018-09-03T09:02:20.384Z,101629.87
2018-09-03T09:04:48.492Z,101629.63
2018-09-03T09:07:16.771Z,101630.16
2018-09-03T09:09:44.888Z,101619.81
2018-09-03T09:12:13.064Z,101622.63
2018-09-03T09:14:41.191Z,101619.53
2018-09-03T09:17:09.354Z,101613.59
2018-09-03T09:19:37.457Z,101613.76
2018-09-03T09:22:05.617Z,101612.30
2018-09-03T09:24:33.844Z,101604.11
2018-09-03T09:27:01.914Z,101611.00
2018-09-03T09:29:30.104Z,101602.69
2018-09-03T09:31:58.274Z,101599.06
2018-09-03T09:34:26.383Z,101608.02
2018-09-03T09:36:54.500Z,101603.41
2018-09-03T09:39:22.595Z,101594.31
2018-09-03T09:41:50.680Z,101598.56
2018-09-03T09:44:18.824Z,101597.57
2018-09-03T09:46:46.911Z,101595.04
2018-09-03T09:49:15.007Z,101586.86
2018-09-03T09:51:43.170Z,101585.97
2018-09-03T09:54:11.399Z,101581.45
2018-09-03T09:56:39.622Z,101585.34
2018-09-03T09:59:07.773Z,101590.75
2018-09-03T10:01:37.501Z,101588.14
2018-09-03T10:04:05.798Z,101579.36
2018-09-03T10:06:34.011Z,101590.53
2018-09-03T10:09:02.118Z,101588.98
2018-09-03T10:11:30.351Z,101581.75
2018-09-03T10:13:58.880Z,101575.39
2018-09-03T10:16:28.108Z,101566.54
2018-09-03T10:18:56.227Z,101573.70
2018-09-03T10:21:24.343Z,101574.77
2018-09-03T10:23:53.216Z,101576.95
2018-09-03T10:26:21.295Z,101572.53
2018-09-03T10:28:49.447Z,101569.58
2018-09-03T10:31:17.547Z,101571.16
2018-09-03T10:33:45.759Z,101569.44
2018-09-03T10:36:13.878Z,101565.09
2018-09-03T10:38:42.030Z,101566.27
2018-09-03T10:41:10.196Z,101567.42
2018-09-03T10:43:38.315Z,101564.66
2018-09-03T10:46:06.458Z,101556.94
2018-09-03T10:48:34.575Z,101561.77
2018-09-03T10:51:02.701Z,101559.45
2018-09-03T10:53:30.879Z,101565.91
2018-09-03T10:55:59.018Z,101555.63
2018-09-03T10:58:27.166Z,101553.66
2018-09-03T11:00:55.355Z,101549.26
2018-09-03T11:03:23.486Z,101549.99
2018-09-03T11:05:51.630Z,101554.26
2018-09-03T11:08:19.994Z,101547.12
2018-09-03T11:10:48.157Z,101537.21
2018-09-03T11:13:16.268Z,101537.91
2018-09-03T11:15:44.379Z,101531.12
2018-09-03T11:18:12.548Z,101532.38
2018-09-03T11:20:40.710Z,101528.67
2018-09-03T11:23:08.831Z,101520.96
2018-09-03T11:25:36.923Z,101525.46
2018-09-03T11:28:05.518Z,101514.53
2018-09-03T11:30:33.659Z,101521.78
2018-09-03T11:33:02.996Z,101517.08
2018-09-03T11:35:31.143Z,101518.67
2018-09-03T11:37:59.249Z,101509.50
2018-09-03T11:40:27.363Z,101500.23
2018-09-03T11:42:55.437Z,101499.90
2018-09-03T11:45:23.997Z,101487.30
2018-09-03T11:47:52.156Z,101490.03
2018-09-03T11:50:20.862Z,101487.92
2018-09-03T11:52:49.092Z,101492.98
2018-09-03T11:55:17.286Z,101487.02
2018-09-03T11:57:45.447Z,101480.21
2018-09-03T12:00:19.622Z,101475.19
2018-09-03T12:02:47.758Z,101476.03
2018-09-03T12:05:15.872Z,101469.53
2018-09-03T12:07:43.987Z,101460.80
2018-09-03T12:10:13.088Z,101462.18
2018-09-03T12:12:41.220Z,101463.02
2018-09-03T12:15:15.064Z,101470.39
2018-09-03T12:17:43.211Z,101472.05
2018-09-03T12:21:15.353Z,101460.82
2018-09-03T12:23:44.059Z,101461.33
2018-09-03T12:26:12.319Z,101456.27
2018-09-03T12:28:40.459Z,101454.28
2018-09-03T12:31:09.000Z,101460.83
2018-09-03T12:33:37.089Z,101463.67
2018-09-03T12:36:05.863Z,101458.64
2018-09-03T12:38:34.445Z,101454.25
2018-09-03T12:41:02.599Z,101450.90
2018-09-03T12:43:30.706Z,101459.91
2018-09-03T12:46:01.250Z,101447.66
2018-09-03T12:48:29.972Z,101451.70
2018-09-03T12:50:58.445Z,101447.55
2018-09-03T12:53:26.542Z,101439.20
2018-09-03T12:55:54.645Z,101440.50
2018-09-03T12:58:22.729Z,101438.48
2018-09-03T13:00:51.004Z,101437.09
2018-09-03T13:03:19.040Z,101429.38
2018-09-03T13:05:47.148Z,101427.20
2018-09-03T13:08:15.527Z,101428.05
2018-09-03T13:10:43.739Z,101431.44
2018-09-03T13:13:11.838Z,101431.61
2018-09-03T13:15:39.941Z,101427.69
2018-09-03T13:18:08.087Z,101416.63
2018-09-03T13:20:36.214Z,101418.62
2018-09-03T13:23:04.362Z,101420.10
2018-09-03T13:25:32.471Z,101425.49
2018-09-03T13:28:00.593Z,101420.81
2018-09-03T13:30:28.678Z,101417.79
2018-09-03T13:32:56.831Z,101422.97
2018-09-03T13:35:25.240Z,101419.31
2018-09-03T13:37:53.349Z,101416.69
2018-09-03T13:40:21.443Z,101414.34
2018-09-03T13:42:49.571Z,101418.64
2018-09-03T13:45:17.656Z,101409.73
2018-09-03T13:47:45.783Z,101409.69
2018-09-03T13:50:13.877Z,101404.14
2018-09-03T13:52:42.099Z,101400.96
2018-09-03T13:55:10.241Z,101398.39
2018-09-03T13:57:38.404Z,101397.13
2018-09-03T14:00:07.669Z,101393.28
2018-09-03T14:02:35.782Z,101391.53
2018-09-03T14:05:03.892Z,101390.74
2018-09-03T14:07:31.969Z,101383.99
2018-09-03T14:10:00.093Z,101382.19
2018-09-03T14:12:28.200Z,101383.32
2018-09-03T14:14:56.284Z,101385.83
2018-09-03T14:17:24.402Z,101385.31
2018-09-03T14:19:52.560Z,101383.76
2018-09-03T14:22:20.960Z,101380.56
2018-09-03T14:24:49.000Z,101374.70
2018-09-03T14:27:17.103Z,101369.41
2018-09-03T14:29:45.224Z,101380.45
2018-09-03T14:32:13.351Z,101377.44
2018-09-03T14:34:41.532Z,101378.62
2018-09-03T14:37:09.688Z,101372.75
2018-09-03T14:39:37.755Z,101367.36
2018-09-03T14:42:05.876Z,101374.36
2018-09-03T14:44:34.008Z,101371.65
2018-09-03T14:47:02.115Z,101370.00
2018-09-03T14:49:30.242Z,101369.05
2018-09-03T14:51:58.333Z,101372.41
2018-09-03T14:54:26.475Z,101370.22
2018-09-03T14:56:54.577Z,101376.37
2018-09-03T14:59:22.680Z,101373.59
2018-09-03T15:01:50.815Z,101367.09
2018-09-03T15:04:18.992Z,101371.41
2018-09-03T15:06:47.035Z,101368.73
2018-09-03T15:09:15.148Z,101376.61
2018-09-03T15:11:43.232Z,101372.23
2018-09-03T15:14:11.328Z,101367.38
2018-09-03T15:16:39.427Z,101368.38
2018-09-03T15:19:07.508Z,101367.20
2018-09-03T15:21:36.020Z,101373.13
2018-09-03T15:24:04.716Z,101361.91
2018-09-03T15:26:32.886Z,101362.25
2018-09-03T15:29:00.933Z,101367.48
2018-09-03T15:31:29.373Z,101363.63
2018-09-03T15:33:57.544Z,101363.45
2018-09-03T15:36:25.894Z,101362.97
2018-09-03T15:38:53.973Z,101360.95
2018-09-03T15:41:22.094Z,101361.96
2018-09-03T15:43:50.188Z,101354.37
2018-09-03T15:46:18.435Z,101354.36
2018-09-03T15:48:46.570Z,101360.69
2018-09-03T15:51:14.715Z,101359.19
2018-09-03T15:53:42.813Z,101362.70
2018-09-03T15:56:10.928Z,101353.28
2018-09-03T15:58:39.085Z,101354.13
2018-09-03T16:01:07.236Z,101360.95
2018-09-03T16:03:35.399Z,101352.75
2018-09-03T16:06:03.519Z,101353.20
2018-09-03T16:08:31.588Z,101353.70
2018-09-03T16:10:59.733Z,101360.62
2018-09-03T16:13:27.843Z,101358.05
2018-09-03T16:15:55.990Z,101354.75
2018-09-03T16:18:24.137Z,101357.71
2018-09-03T16:20:52.381Z,101349.48
2018-09-03T16:23:20.951Z,101352.83
2018-09-03T16:25:49.055Z,101352.95
2018-09-03T16:28:17.220Z,101351.56
2018-09-03T16:30:45.336Z,101350.21
2018-09-03T16:33:13.506Z,101353.48
2018-09-03T16:35:41.624Z,101353.42
2018-09-03T16:38:09.784Z,101351.06
2018-09-03T16:40:37.917Z,101350.44
2018-09-03T16:43:06.419Z,101353.26
2018-09-03T16:45:35.048Z,101354.68
2018-09-03T16:48:03.178Z,101348.84
2018-09-03T16:50:32.149Z,101355.25
2018-09-03T16:53:00.264Z,101356.19
2018-09-03T16:55:28.397Z,101362.05
2018-09-03T16:57:56.542Z,101363.03
2018-09-03T17:00:24.678Z,101357.61
2018-09-03T17:02:52.824Z,101360.84
2018-09-03T17:05:20.927Z,101366.66
2018-09-03T17:07:49.028Z,101364.12
2018-09-03T17:10:17.214Z,101365.50
2018-09-03T17:12:45.337Z,101369.84
2018-09-03T17:15:13.480Z,101369.17
2018-09-03T17:17:41.583Z,101374.02
2018-09-03T17:20:09.764Z,101367.88
2018-09-03T17:22:37.886Z,101371.78
2018-09-03T17:25:06.090Z,101365.03
2018-09-03T17:27:34.310Z,101364.89
2018-09-03T17:30:02.424Z,101366.43
2018-09-03T17:32:30.531Z,101372.89
2018-09-03T17:34:58.743Z,101371.14
2018-09-03T17:37:26.880Z,101370.70
2018-09-03T17:39:54.983Z,101372.45
2018-09-03T17:42:23.123Z,101373.56
2018-09-03T17:44:51.233Z,101373.77
2018-09-03T17:47:19.372Z,101372.75
2018-09-03T17:49:47.584Z,101374.21
2018-09-03T17:52:15.659Z,101374.00
2018-09-03T17:54:43.820Z,101376.75
2018-09-03T17:57:11.981Z,101377.87
2018-09-03T17:59:40.158Z,101383.81
2018-09-03T18:02:08.288Z,101383.58
2018-09-03T18:04:36.442Z,101384.23
2018-09-03T18:07:04.573Z,101378.42
2018-09-03T18:09:32.746Z,101387.30
2018-09-03T18:12:00.850Z,101380.57
2018-09-03T18:14:28.982Z,101395.48
2018-09-03T18:16:57.105Z,101396.86
2018-09-03T18:19:25.243Z,101394.55
2018-09-03T18:21:53.495Z,101391.53
2018-09-03T18:24:21.545Z,101393.75
2018-09-03T18:26:49.660Z,101398.05
2018-09-03T18:29:17.855Z,101407.23
2018-09-03T18:31:45.971Z,101399.09
2018-09-03T18:34:14.123Z,101398.98
2018-09-03T18:36:42.274Z,101399.49
2018-09-03T18:39:10.501Z,101406.14
2018-09-03T18:41:38.666Z,101408.09
2018-09-03T18:44:06.799Z,101405.56
2018-09-03T18:49:09.335Z,101406.66
2018-09-03T18:51:37.445Z,101405.83
2018-09-03T18:54:05.589Z,101409.94
2018-09-03T18:56:33.734Z,101405.30
2018-09-03T18:59:01.877Z,101403.03
2018-09-03T19:01:30.056Z,101405.44
2018-09-03T19:03:58.182Z,101407.66
2018-09-03T19:06:26.300Z,101412.13
2018-09-03T19:08:54.439Z,101413.02
2018-09-03T19:11:22.588Z,101411.47
2018-09-03T19:13:51.227Z,101414.97
2018-09-03T19:16:19.328Z,101415.70
2018-09-03T19:18:47.460Z,101414.04
2018-09-03T19:21:15.606Z,101414.38
2018-09-03T19:23:43.753Z,101417.52
2018-09-03T19:26:11.855Z,101423.14
2018-09-03T19:28:39.967Z,101415.92
2018-09-03T19:31:08.101Z,101422.09
2018-09-03T19:33:36.235Z,101417.14
2018-09-03T19:36:04.339Z,101426.63
2018-09-03T19:38:32.511Z,101424.09
2018-09-03T19:41:00.605Z,101433.04
2018-09-03T19:43:28.678Z,101432.91
2018-09-03T19:45:56.824Z,101432.13
2018-09-03T19:48:24.987Z,101428.15
2018-09-03T19:50:53.063Z,101434.11
2018-09-03T19:53:21.205Z,101429.65
2018-09-03T19:55:49.363Z,101429.63
2018-09-03T19:58:17.512Z,101432.91
2018-09-03T20:00:45.623Z,101428.66
2018-09-03T20:03:13.739Z,101428.53
2018-09-03T20:05:41.876Z,101434.23
2018-09-03T20:08:10.095Z,101432.30
2018-09-03T20:10:38.998Z,101437.73
2018-09-03T20:13:07.082Z,101440.02
2018-09-03T20:15:35.196Z,101438.96
2018-09-03T20:18:03.306Z,101441.48
2018-09-03T20:20:31.423Z,101446.78
2018-09-03T20:22:59.543Z,101447.05
2018-09-03T20:25:27.656Z,101442.47
2018-09-03T20:27:55.779Z,101440.89
2018-09-03T20:30:23.868Z,101450.17
2018-09-03T20:32:51.973Z,101442.92
2018-09-03T20:35:20.075Z,101443.42
2018-09-03T20:37:48.207Z,101449.57
2018-09-03T20:40:16.343Z,101444.23
2018-09-03T20:42:44.688Z,101445.70
2018-09-03T20:45:12.810Z,101440.99
2018-09-03T20:47:40.939Z,101445.33
2018-09-03T20:50:09.079Z,101447.13
2018-09-03T20:52:37.209Z,101446.87
2018-09-03T20:55:05.404Z,101446.39
2018-09-03T20:57:33.535Z,101441.59
2018-09-03T21:00:01.672Z,101447.00
2018-09-03T21:02:29.767Z,101442.98
2018-09-03T21:04:57.899Z,101442.86
2018-09-03T21:07:26.012Z,101451.38
2018-09-03T21:09:54.082Z,101450.89
2018-09-03T21:12:22.181Z,101452.83
2018-09-03T21:14:55.956Z,101450.61
2018-09-03T21:17:24.080Z,101451.34
2018-09-03T21:19:52.231Z,101450.73
2018-09-03T21:22:20.337Z,101451.57
2018-09-03T21:24:48.448Z,101456.44
2018-09-03T21:27:16.548Z,101452.25
2018-09-03T21:29:44.644Z,101452.25
2018-09-03T21:32:12.745Z,101455.27
2018-09-03T21:34:40.867Z,101461.63
2018-09-03T21:37:08.965Z,101451.88
2018-09-03T21:39:37.089Z,101455.59
2018-09-03T21:42:05.593Z,101457.47
2018-09-03T21:44:33.729Z,101460.70
2018-09-03T21:47:01.911Z,101460.81
2018-09-03T21:49:30.015Z,101452.77
2018-09-03T21:51:58.125Z,101451.63
2018-09-03T21:54:26.250Z,101457.17
2018-09-03T21:56:54.388Z,101456.98
2018-09-03T21:59:22.521Z,101458.42
2018-09-03T22:01:50.603Z,101460.09
2018-09-03T22:04:18.708Z,101459.84
2018-09-03T22:06:46.801Z,101463.95
2018-09-03T22:09:14.903Z,101462.89
2018-09-03T22:11:43.028Z,101459.29
2018-09-03T22:14:11.106Z,101461.09
2018-09-03T22:16:39.196Z,101461.41
2018-09-03T22:19:07.310Z,101466.21
2018-09-03T22:21:35.444Z,101462.14
2018-09-03T22:24:03.554Z,101462.83
2018-09-03T22:26:31.678Z,101456.59
2018-09-03T22:28:59.786Z,101454.53
2018-09-03T22:31:27.936Z,101455.74
2018-09-03T22:38:50.744Z,101460.28
2018-09-03T22:41:18.835Z,101453.08
2018-09-03T22:43:46.944Z,101454.13
2018-09-03T22:46:15.065Z,101458.99
2018-09-03T22:48:43.154Z,101455.03
2018-09-03T22:51:11.267Z,101457.61
2018-09-03T22:53:39.370Z,101460.23
2018-09-03T22:56:07.487Z,101457.26
2018-09-03T22:58:35.691Z,101460.48
2018-09-03T23:01:03.806Z,101456.84
2018-09-03T23:03:31.933Z,101453.30
2018-09-03T23:06:00.072Z,101444.58
2018-09-03T23:08:28.279Z,101448.09
2018-09-03T23:10:56.375Z,101442.05
2018-09-03T23:13:24.504Z,101444.48
2018-09-03T23:15:53.436Z,101444.85
2018-09-03T23:18:22.959Z,101442.94
2018-09-03T23:20:51.082Z,101444.80
2018-09-03T23:23:19.214Z,101442.67
2018-09-03T23:25:47.983Z,101431.84
2018-09-03T23:28:16.128Z,101432.70
2018-09-03T23:30:44.237Z,101424.30
2018-09-03T23:33:12.743Z,101429.75
2018-09-03T23:35:40.916Z,101427.55
2018-09-03T23:38:09.010Z,101432.86
2018-09-03T23:40:37.146Z,101432.28
2018-09-03T23:43:05.247Z,101440.89
2018-09-03T23:45:33.428Z,101431.13
2018-09-03T23:48:01.561Z,101432.12
2018-09-03T23:50:29.676Z,101428.69
2018-09-03T23:52:57.839Z,101419.18
2018-09-03T23:55:25.946Z,101423.05
2018-09-03T23:57:54.029Z,101420.03
